createdAt,value
2018-06-22T00:00:13.493Z,68.52
2018-06-22T00:01:13.484Z,69.58
2018-06-22T00:02:13.460Z,70.06
2018-06-22T00:03:13.478Z,69.79
2018-06-22T00:04:13.431Z,69.68
2018-06-22T00:05:13.425Z,68.35
2018-06-22T00:06:13.432Z,68.55
2018-06-22T00:07:13.400Z,69.58
2018-06-22T00:08:13.394Z,70.20
2018-06-22T00:09:13.390Z,70.29
2018-06-22T00:10:13.374Z,70.71
2018-06-22T00:11:13.392Z,70.61
2018-06-22T00:12:13.354Z,68.35
2018-06-22T00:13:13.339Z,68.25
2018-06-22T00:14:13.338Z,68.76
2018-06-22T00:15:13.313Z,68.87
2018-06-22T00:16:13.315Z,68.87
2018-06-22T00:17:13.328Z,68.46
2018-06-22T00:18:13.276Z,68.15
2018-06-22T00:19:13.281Z,69.27
2018-06-22T00:20:13.261Z,69.38
2018-06-22T00:21:13.248Z,69.38
2018-06-22T00:22:13.248Z,70.29
2018-06-22T00:23:13.233Z,70.20
2018-06-22T00:24:13.211Z,70.09
2018-06-22T00:25:13.198Z,69.79
2018-06-22T00:26:13.201Z,69.07
2018-06-22T00:27:13.202Z,68.97
2018-06-22T00:28:13.187Z,68.87
2018-06-22T00:29:13.154Z,69.61
2018-06-22T00:30:13.150Z,69.61
2018-06-22T00:31:13.136Z,69.68
2018-06-22T00:32:13.137Z,70.64
2018-06-22T00:33:13.112Z,70.74
2018-06-22T00:34:13.103Z,70.74
2018-06-22T00:35:13.114Z,70.64
2018-06-22T00:36:13.099Z,70.53
2018-06-22T00:37:13.083Z,70.26
2018-06-22T00:38:13.058Z,69.85
2018-06-22T00:39:13.047Z,69.95
2018-06-22T00:40:13.045Z,70.16
2018-06-22T00:41:13.023Z,70.47
2018-06-22T00:42:13.045Z,70.26
2018-06-22T00:43:13.004Z,70.67
2018-06-22T00:44:12.991Z,70.57
2018-06-22T00:45:12.982Z,70.87
2018-06-22T00:46:12.977Z,71.11
2018-06-22T00:47:12.973Z,71.11
2018-06-22T00:48:12.959Z,71.11
2018-06-22T00:49:12.934Z,71.62
2018-06-22T00:50:12.941Z,71.62
2018-06-22T00:51:12.911Z,71.73
2018-06-22T00:52:12.958Z,71.62
2018-06-22T00:53:12.937Z,71.15
2018-06-22T00:54:12.886Z,70.94
2018-06-22T00:55:12.868Z,71.97
2018-06-22T00:56:12.856Z,71.52
2018-06-22T00:57:12.857Z,71.83
2018-06-22T00:58:12.847Z,71.66
2018-06-22T00:59:12.855Z,72.27
2018-06-22T01:00:12.813Z,72.58
2018-06-22T01:01:12.804Z,71.76
2018-06-22T01:02:12.876Z,71.86
2018-06-22T01:03:12.785Z,72.48
2018-06-22T01:04:12.771Z,72.68
2018-06-22T01:05:12.756Z,72.07
2018-06-22T01:06:12.782Z,72.17
2018-06-22T01:07:12.763Z,72.78
2018-06-22T01:08:12.776Z,73.30
2018-06-22T01:09:12.725Z,73.40
2018-06-22T01:10:12.761Z,73.30
2018-06-22T01:11:12.723Z,73.30
2018-06-22T01:12:12.689Z,72.38
2018-06-22T01:13:12.729Z,72.78
2018-06-22T01:14:12.673Z,72.48
2018-06-22T01:15:12.691Z,72.38
2018-06-22T01:16:12.644Z,72.41
2018-06-22T01:17:12.631Z,72.61
2018-06-22T01:18:12.645Z,72.72
2018-06-22T01:19:12.608Z,73.44
2018-06-22T01:20:12.619Z,73.54
2018-06-22T01:21:12.600Z,73.02
2018-06-22T01:22:12.592Z,73.02
2018-06-22T01:23:12.611Z,73.54
2018-06-22T01:24:12.560Z,73.06
2018-06-22T01:25:12.544Z,73.68
2018-06-22T01:26:12.526Z,73.06
2018-06-22T01:27:12.527Z,73.06
2018-06-22T01:28:12.522Z,73.47
2018-06-22T01:29:12.517Z,73.98
2018-06-22T01:30:12.480Z,74.49
2018-06-22T01:31:12.475Z,73.98
2018-06-22T01:32:12.473Z,73.98
2018-06-22T01:33:12.460Z,74.19
2018-06-22T01:34:12.487Z,74.19
2018-06-22T01:35:12.433Z,74.63
2018-06-22T01:36:12.413Z,74.63
2018-06-22T01:37:12.405Z,74.63
2018-06-22T01:38:12.409Z,75.15
2018-06-22T01:39:12.406Z,74.12
2018-06-22T01:40:12.370Z,73.91
2018-06-22T01:41:12.360Z,74.94
2018-06-22T01:42:12.353Z,74.63
2018-06-22T01:43:12.368Z,74.63
2018-06-22T01:44:12.334Z,75.35
2018-06-22T01:45:12.317Z,74.77
2018-06-22T01:46:12.310Z,75.29
2018-06-22T01:47:12.308Z,75.49
2018-06-22T01:48:12.297Z,75.38
2018-06-22T01:49:12.280Z,74.98
2018-06-22T01:50:12.265Z,75.04
2018-06-22T01:51:12.258Z,75.18
2018-06-22T01:52:12.252Z,74.87
2018-06-22T01:53:12.257Z,75.80
2018-06-22T01:54:12.224Z,75.59
2018-06-22T01:55:12.203Z,75.70
2018-06-22T01:56:12.202Z,75.73
2018-06-22T01:57:12.208Z,75.38
2018-06-22T01:58:12.171Z,75.29
2018-06-22T01:59:12.188Z,75.59
2018-06-22T02:00:12.157Z,75.52
2018-06-22T02:01:12.137Z,75.52
2018-06-22T02:02:12.141Z,75.21
2018-06-22T02:03:12.119Z,75.93
2018-06-22T02:04:12.150Z,75.83
2018-06-22T02:05:12.094Z,76.04
2018-06-22T02:06:12.099Z,75.52
2018-06-22T02:07:12.078Z,75.93
2018-06-22T02:08:12.062Z,75.56
2018-06-22T02:09:12.079Z,75.46
2018-06-22T02:10:12.043Z,75.04
2018-06-22T02:11:12.029Z,75.46
2018-06-22T02:12:12.020Z,75.67
2018-06-22T02:13:12.018Z,75.76
2018-06-22T02:14:12.021Z,76.07
2018-06-22T02:15:11.988Z,75.56
2018-06-22T02:16:11.987Z,75.46
2018-06-22T02:17:11.979Z,75.67
2018-06-22T02:18:11.949Z,75.87
2018-06-22T02:19:11.963Z,76.90
2018-06-22T02:20:11.930Z,75.76
2018-06-22T02:21:11.917Z,75.90
2018-06-22T02:22:11.906Z,76.01
2018-06-22T02:23:11.895Z,76.93
2018-06-22T02:24:11.895Z,76.83
2018-06-22T02:25:11.888Z,76.62
2018-06-22T02:26:11.874Z,77.03
2018-06-22T02:27:11.852Z,76.83
2018-06-22T02:28:11.837Z,76.66
2018-06-22T02:29:11.843Z,77.07
2018-06-22T02:30:11.816Z,76.73
2018-06-22T02:31:11.811Z,76.97
2018-06-22T02:32:11.805Z,76.86
2018-06-22T02:33:11.786Z,76.66
2018-06-22T02:34:11.780Z,77.00
2018-06-22T02:35:11.773Z,76.76
2018-06-22T02:36:11.758Z,77.42
2018-06-22T02:37:11.759Z,77.72
2018-06-22T02:38:11.729Z,78.14
2018-06-22T02:39:11.735Z,78.89
2018-06-22T02:40:11.706Z,78.55
2018-06-22T02:41:11.694Z,79.30
2018-06-22T02:42:11.743Z,78.65
2018-06-22T02:43:11.679Z,79.51
2018-06-22T02:44:11.697Z,78.79
2018-06-22T02:45:11.649Z,78.89
2018-06-22T02:46:11.639Z,79.37
2018-06-22T02:47:11.637Z,78.79
2018-06-22T02:48:11.636Z,77.83
2018-06-22T02:49:11.645Z,78.28
2018-06-22T02:50:11.631Z,78.34
2018-06-22T02:51:11.591Z,78.24
2018-06-22T02:52:11.574Z,77.72
2018-06-22T02:53:11.566Z,77.93
2018-06-22T02:54:11.551Z,77.72
2018-06-22T02:55:11.573Z,77.62
2018-06-22T02:56:11.534Z,77.76
2018-06-22T02:57:11.517Z,78.48
2018-06-22T02:58:11.519Z,78.28
2018-06-22T02:59:11.494Z,78.28
2018-06-22T03:00:11.500Z,78.58
2018-06-22T03:01:11.480Z,79.10
2018-06-22T03:02:11.463Z,79.61
2018-06-22T03:03:11.459Z,79.30
2018-06-22T03:04:11.438Z,78.89
2018-06-22T03:05:11.451Z,79.10
2018-06-22T03:06:11.447Z,78.55
2018-06-22T03:07:11.414Z,78.89
2018-06-22T03:08:11.396Z,78.48
2018-06-22T03:09:11.384Z,79.41
2018-06-22T03:10:11.381Z,78.89
2018-06-22T03:11:11.362Z,78.28
2018-06-22T03:12:11.369Z,77.86
2018-06-22T03:13:11.341Z,79.10
2018-06-22T03:14:11.336Z,78.17
2018-06-22T03:15:11.386Z,77.72
2018-06-22T03:16:11.310Z,77.93
2018-06-22T03:17:11.303Z,79.06
2018-06-22T03:18:11.290Z,78.34
2018-06-22T03:19:11.273Z,77.93
2018-06-22T03:20:11.271Z,78.17
2018-06-22T03:21:11.261Z,78.58
2018-06-22T03:22:11.271Z,78.96
2018-06-22T03:23:11.229Z,78.69
2018-06-22T03:24:11.221Z,78.07
2018-06-22T03:25:11.220Z,78.17
2018-06-22T03:26:11.202Z,77.86
2018-06-22T03:27:11.186Z,78.24
2018-06-22T03:28:11.172Z,78.34
2018-06-22T03:29:11.163Z,77.86
2018-06-22T03:30:11.164Z,78.38
2018-06-22T03:31:11.154Z,79.00
2018-06-22T03:32:11.144Z,78.75
2018-06-22T03:33:11.116Z,79.10
2018-06-22T03:34:11.106Z,78.86
2018-06-22T03:35:11.137Z,78.24
2018-06-22T03:36:11.088Z,77.72
2018-06-22T03:37:11.078Z,77.11
2018-06-22T03:38:11.065Z,77.31
2018-06-22T03:39:11.051Z,77.51
2018-06-22T03:40:11.064Z,77.93
2018-06-22T03:41:11.045Z,77.62
2018-06-22T03:42:11.035Z,77.72
2018-06-22T03:43:11.010Z,77.72
2018-06-22T03:44:10.997Z,78.96
2018-06-22T03:45:11.030Z,78.75
2018-06-22T03:46:10.976Z,78.55
2018-06-22T03:47:11.060Z,77.58
2018-06-22T03:48:10.951Z,77.58
2018-06-22T03:49:10.941Z,76.86
2018-06-22T03:50:10.968Z,76.86
2018-06-22T03:51:10.921Z,77.07
2018-06-22T03:52:10.907Z,77.03
2018-06-22T03:53:10.923Z,77.86
2018-06-22T03:54:10.888Z,77.17
2018-06-22T03:55:10.888Z,77.17
2018-06-22T03:56:10.872Z,77.03
2018-06-22T03:57:10.853Z,77.03
2018-06-22T03:58:10.850Z,77.14
2018-06-22T03:59:10.837Z,77.34
2018-06-22T04:00:10.836Z,77.34
2018-06-22T04:01:10.805Z,77.65
2018-06-22T04:02:10.799Z,78.37
2018-06-22T04:03:10.806Z,77.75
2018-06-22T04:04:10.776Z,78.27
2018-06-22T04:05:10.793Z,76.73
2018-06-22T04:06:10.758Z,76.52
2018-06-22T04:07:10.742Z,77.00
2018-06-22T04:08:10.769Z,76.59
2018-06-22T04:09:10.729Z,76.65
2018-06-22T04:10:10.721Z,74.70
2018-06-22T04:11:10.694Z,74.77
2018-06-22T04:12:10.683Z,75.49
2018-06-22T04:13:10.681Z,75.59
2018-06-22T04:14:10.670Z,75.49
2018-06-22T04:15:10.664Z,75.49
2018-06-22T04:16:10.639Z,74.05
2018-06-22T04:17:10.632Z,74.36
2018-06-22T04:18:10.643Z,75.59
2018-06-22T04:19:10.609Z,75.25
2018-06-22T04:20:10.615Z,70.73
2018-06-22T04:21:10.585Z,70.73
2018-06-22T04:22:10.605Z,73.71
2018-06-22T04:23:10.577Z,74.12
2018-06-22T04:24:10.562Z,71.66
2018-06-22T04:25:10.561Z,73.06
2018-06-22T04:26:10.529Z,73.47
2018-06-22T04:27:10.526Z,73.68
2018-06-22T04:28:10.517Z,74.08
2018-06-22T04:29:10.505Z,73.98
2018-06-22T04:30:10.524Z,72.44
2018-06-22T04:31:10.478Z,71.52
2018-06-22T04:32:10.466Z,71.93
2018-06-22T04:33:10.453Z,72.85
2018-06-22T04:34:10.449Z,73.06
2018-06-22T04:35:10.450Z,72.41
2018-06-22T04:36:10.417Z,72.31
2018-06-22T04:37:10.407Z,72.72
2018-06-22T04:38:10.420Z,66.63
2018-06-22T04:39:10.387Z,68.07
2018-06-22T04:40:10.400Z,68.14
2018-06-22T04:41:10.365Z,69.34
2018-06-22T04:42:10.374Z,68.32
2018-06-22T04:43:10.344Z,67.90
2018-06-22T04:44:10.329Z,67.57
2018-06-22T04:45:10.327Z,65.93
2018-06-22T04:46:10.355Z,64.39
2018-06-22T04:47:10.303Z,64.50
2018-06-22T04:48:10.281Z,64.36
2018-06-22T04:49:10.303Z,65.18
2018-06-22T04:50:10.274Z,65.59
2018-06-22T04:51:10.296Z,64.36
2018-06-22T04:52:10.246Z,64.03
2018-06-22T04:53:10.255Z,62.62
2018-06-22T04:54:10.232Z,62.73
2018-06-22T04:55:10.271Z,62.73
2018-06-22T04:56:10.273Z,62.83
2018-06-22T04:57:10.214Z,63.44
2018-06-22T04:58:10.182Z,63.98
2018-06-22T04:59:10.171Z,63.98
2018-06-22T05:00:10.171Z,64.29
2018-06-22T05:01:10.173Z,63.37
2018-06-22T05:02:10.139Z,65.31
2018-06-22T05:03:10.176Z,64.50
2018-06-22T05:04:10.126Z,65.31
2018-06-22T05:05:10.099Z,64.90
2018-06-22T05:06:10.107Z,64.42
2018-06-22T05:07:10.093Z,64.42
2018-06-22T05:08:10.069Z,66.64
2018-06-22T05:09:10.082Z,65.21
2018-06-22T05:10:10.052Z,65.42
2018-06-22T05:11:10.076Z,63.20
2018-06-22T05:12:10.018Z,64.32
2018-06-22T05:13:10.013Z,65.62
2018-06-22T05:14:10.010Z,65.93
2018-06-22T05:15:10.011Z,66.03
2018-06-22T05:16:09.992Z,66.34
2018-06-22T05:17:09.982Z,65.31
2018-06-22T05:18:09.965Z,64.09
2018-06-22T05:19:09.968Z,63.37
2018-06-22T05:20:09.932Z,63.88
2018-06-22T05:21:09.936Z,65.01
2018-06-22T05:22:09.929Z,66.13
2018-06-22T05:23:09.947Z,66.44
2018-06-22T05:24:09.921Z,66.95
2018-06-22T05:25:09.891Z,65.39
2018-06-22T05:26:09.885Z,66.24
2018-06-22T05:27:09.900Z,64.26
2018-06-22T05:28:09.842Z,63.95
2018-06-22T05:29:09.849Z,64.36
2018-06-22T05:30:09.822Z,64.13
2018-06-22T05:31:09.827Z,64.23
2018-06-22T05:32:09.799Z,63.21
2018-06-22T05:33:09.793Z,64.36
2018-06-22T05:34:09.778Z,64.43
2018-06-22T05:35:09.776Z,64.87
2018-06-22T05:36:09.774Z,63.21
2018-06-22T05:37:09.752Z,65.66
2018-06-22T05:38:09.775Z,65.77
2018-06-22T05:39:09.728Z,62.83
2018-06-22T05:40:09.715Z,64.03
2018-06-22T05:41:09.713Z,63.92
2018-06-22T05:42:09.700Z,62.29
2018-06-22T05:43:09.681Z,63.13
2018-06-22T05:44:09.677Z,64.03
2018-06-22T05:45:09.658Z,64.03
2018-06-22T05:46:09.665Z,63.72
2018-06-22T05:47:09.645Z,63.92
2018-06-22T05:48:09.626Z,65.46
2018-06-22T05:49:09.619Z,63.92
2018-06-22T05:50:09.605Z,63.82
2018-06-22T05:51:09.601Z,64.10
2018-06-22T05:52:09.583Z,63.31
2018-06-22T05:53:09.565Z,63.00
2018-06-22T05:54:09.580Z,63.00
2018-06-22T05:55:09.557Z,62.90
2018-06-22T05:56:09.575Z,61.85
2018-06-22T05:57:09.556Z,62.43
2018-06-22T05:58:09.524Z,61.38
2018-06-22T05:59:09.516Z,60.03
2018-06-22T06:00:09.517Z,59.16
2018-06-22T06:01:09.506Z,57.80
2018-06-22T06:02:09.490Z,56.04
2018-06-22T06:03:09.485Z,56.37
2018-06-22T06:04:09.449Z,58.23
2018-06-22T06:05:09.445Z,58.47
2018-06-22T06:06:09.431Z,58.39
2018-06-22T06:07:09.421Z,59.21
2018-06-22T06:08:09.412Z,59.92
2018-06-22T06:09:09.422Z,59.21
2018-06-22T06:10:09.395Z,60.64
2018-06-22T06:11:09.443Z,61.05
2018-06-22T06:12:09.394Z,60.16
2018-06-22T06:13:09.446Z,59.64
2018-06-22T06:14:09.340Z,60.36
2018-06-22T06:15:09.346Z,61.05
2018-06-22T06:16:09.341Z,59.85
2018-06-22T06:17:09.340Z,61.18
2018-06-22T06:18:09.316Z,61.18
2018-06-22T06:19:09.279Z,60.80
2018-06-22T06:20:09.330Z,60.39
2018-06-22T06:21:09.397Z,61.54
2018-06-22T06:22:09.250Z,62.77
2018-06-22T06:23:09.238Z,62.87
2018-06-22T06:24:09.234Z,61.10
2018-06-22T06:25:09.228Z,60.72
2018-06-22T06:26:09.216Z,62.13
2018-06-22T06:27:09.485Z,62.54
2018-06-22T06:28:09.174Z,63.56
2018-06-22T06:29:09.175Z,63.15
2018-06-22T06:30:09.150Z,64.24
2018-06-22T06:31:09.162Z,63.02
2018-06-22T06:32:09.143Z,61.61
2018-06-22T06:33:09.122Z,61.72
2018-06-22T06:34:09.118Z,61.61
2018-06-22T06:35:09.101Z,62.33
2018-06-22T06:36:09.099Z,62.13
2018-06-22T06:37:09.099Z,62.66
2018-06-22T06:38:09.069Z,62.87
2018-06-22T06:39:09.058Z,62.16
2018-06-22T06:40:09.041Z,62.66
2018-06-22T06:41:09.042Z,61.95
2018-06-22T06:42:09.019Z,62.16
2018-06-22T06:43:09.041Z,63.28
2018-06-22T06:44:08.996Z,62.66
2018-06-22T06:45:08.989Z,62.46
2018-06-22T06:46:08.998Z,61.41
2018-06-22T06:47:08.968Z,61.51
2018-06-22T06:48:08.964Z,60.80
2018-06-22T06:49:08.969Z,61.21
2018-06-22T06:50:08.948Z,61.92
2018-06-22T06:51:08.917Z,62.63
2018-06-22T06:52:08.924Z,62.95
2018-06-22T06:53:08.929Z,61.41
2018-06-22T06:54:08.889Z,62.02
2018-06-22T06:55:09.058Z,62.43
2018-06-22T06:56:08.869Z,61.85
2018-06-22T06:57:08.874Z,61.44
2018-06-22T06:58:08.856Z,61.54
2018-06-22T06:59:08.840Z,62.05
2018-06-22T07:00:08.826Z,62.87
2018-06-22T07:01:08.814Z,61.75
2018-06-22T07:02:08.816Z,63.51
2018-06-22T07:03:08.808Z,64.03
2018-06-22T07:04:08.782Z,63.21
2018-06-22T07:05:08.774Z,63.00
2018-06-22T07:06:08.756Z,63.51
2018-06-22T07:07:08.778Z,63.21
2018-06-22T07:08:08.734Z,63.31
2018-06-22T07:09:08.736Z,63.92
2018-06-22T07:10:08.727Z,64.13
2018-06-22T07:11:08.731Z,64.33
2018-06-22T07:12:08.739Z,67.19
2018-06-22T07:13:08.708Z,66.38
2018-06-22T07:14:08.678Z,66.17
2018-06-22T07:15:08.665Z,66.78
2018-06-22T07:16:08.648Z,67.57
2018-06-22T07:17:08.726Z,66.69
2018-06-22T07:18:08.626Z,68.73
2018-06-22T07:19:08.630Z,66.78
2018-06-22T07:20:08.604Z,67.10
2018-06-22T07:21:08.592Z,68.32
2018-06-22T07:22:08.590Z,69.55
2018-06-22T07:23:08.621Z,71.08
2018-06-22T07:24:08.569Z,69.85
2018-06-22T07:25:08.563Z,69.04
2018-06-22T07:26:08.535Z,68.52
2018-06-22T07:27:08.547Z,70.88
2018-06-22T07:28:08.510Z,68.52
2018-06-22T07:29:09.071Z,68.12
2018-06-22T07:30:08.512Z,70.98
2018-06-22T07:31:08.503Z,70.06
2018-06-22T07:32:08.497Z,69.85
2018-06-22T07:33:08.473Z,71.29
2018-06-22T07:34:08.487Z,72.11
2018-06-22T07:35:08.440Z,71.39
2018-06-22T07:36:08.458Z,70.40
2018-06-22T07:37:08.473Z,69.17
2018-06-22T07:38:08.432Z,69.17
2018-06-22T07:39:08.404Z,70.94
2018-06-22T07:40:08.410Z,71.73
2018-06-22T07:41:08.386Z,72.72
2018-06-22T07:42:08.435Z,72.82
2018-06-22T07:43:08.365Z,72.92
2018-06-22T07:44:08.350Z,70.06
2018-06-22T07:45:08.373Z,70.16
2018-06-22T07:46:08.318Z,70.57
2018-06-22T07:47:08.389Z,70.16
2018-06-22T07:48:08.328Z,71.42
2018-06-22T07:49:08.311Z,71.83
2018-06-22T07:50:08.293Z,72.34
2018-06-22T07:51:08.274Z,72.55
2018-06-22T07:52:08.292Z,70.91
2018-06-22T07:53:08.260Z,71.53
2018-06-22T07:54:08.225Z,73.57
2018-06-22T07:55:08.290Z,71.12
2018-06-22T07:56:08.214Z,70.74
2018-06-22T07:57:08.225Z,71.56
2018-06-22T07:58:08.229Z,72.17
2018-06-22T07:59:08.177Z,74.94
2018-06-22T08:00:08.186Z,74.84
2018-06-22T08:01:08.155Z,75.62
2018-06-22T08:02:08.171Z,73.68
2018-06-22T08:03:08.175Z,73.27
2018-06-22T08:04:08.123Z,72.96
2018-06-22T08:05:08.137Z,71.32
2018-06-22T08:06:08.197Z,72.07
2018-06-22T08:07:08.103Z,73.91
2018-06-22T08:08:08.093Z,74.32
2018-06-22T08:09:08.098Z,76.23
2018-06-22T08:10:08.055Z,76.54
2018-06-22T08:11:08.045Z,76.23
2018-06-22T08:12:08.069Z,75.89
2018-06-22T08:13:08.048Z,76.40
2018-06-22T08:14:08.007Z,76.40
2018-06-22T08:15:08.004Z,75.17
2018-06-22T08:16:07.996Z,73.64
2018-06-22T08:17:08.002Z,73.13
2018-06-22T08:18:08.001Z,76.43
2018-06-22T08:19:07.959Z,75.42
2018-06-22T08:20:07.974Z,77.56
2018-06-22T08:21:07.986Z,79.41
2018-06-22T08:22:07.968Z,79.98
2018-06-22T08:23:07.908Z,79.10
2018-06-22T08:24:07.918Z,79.06
2018-06-22T08:25:07.895Z,79.06
2018-06-22T08:26:07.882Z,80.39
2018-06-22T08:27:07.903Z,80.19
2018-06-22T08:28:07.861Z,78.55
2018-06-22T08:29:07.851Z,78.69
2018-06-22T08:30:07.857Z,80.29
2018-06-22T08:31:07.820Z,78.45
2018-06-22T08:32:07.851Z,79.71
2018-06-22T08:33:07.863Z,80.22
2018-06-22T08:34:07.804Z,80.33
2018-06-22T08:35:07.841Z,80.19
2018-06-22T08:36:07.799Z,80.53
2018-06-22T08:37:07.786Z,80.60
2018-06-22T08:38:07.784Z,80.43
2018-06-22T08:39:07.761Z,79.68
2018-06-22T08:40:07.739Z,77.87
2018-06-22T08:41:07.716Z,77.09
2018-06-22T08:42:07.756Z,78.69
2018-06-22T08:43:07.715Z,79.10
2018-06-22T08:44:07.690Z,80.88
2018-06-22T08:45:07.664Z,80.36
2018-06-22T08:46:07.666Z,80.67
2018-06-22T08:47:07.663Z,80.94
2018-06-22T08:48:07.685Z,81.45
2018-06-22T08:49:07.663Z,81.76
2018-06-22T08:50:07.630Z,81.45
2018-06-22T08:51:07.621Z,80.53
2018-06-22T08:52:07.615Z,80.53
2018-06-22T08:53:07.585Z,79.30
2018-06-22T08:54:07.571Z,80.53
2018-06-22T08:55:07.583Z,80.43
2018-06-22T08:56:07.543Z,78.28
2018-06-22T08:57:07.565Z,79.13
2018-06-22T08:58:07.567Z,80.36
2018-06-22T08:59:07.518Z,80.46
2018-06-22T09:00:07.499Z,80.26
2018-06-22T09:01:07.522Z,81.38
2018-06-22T09:02:07.498Z,83.03
2018-06-22T09:03:07.517Z,83.33
2018-06-22T09:04:07.482Z,83.23
2018-06-22T09:05:07.444Z,81.70
2018-06-22T09:06:07.426Z,82.00
2018-06-22T09:07:07.442Z,82.31
2018-06-22T09:08:07.468Z,83.13
2018-06-22T09:09:07.394Z,81.35
2018-06-22T09:10:07.386Z,81.59
2018-06-22T09:11:07.395Z,79.27
2018-06-22T09:12:07.386Z,81.01
2018-06-22T09:13:08.113Z,80.44
2018-06-22T09:14:07.351Z,81.57
2018-06-22T09:15:07.400Z,81.36
2018-06-22T09:16:07.333Z,81.73
2018-06-22T09:17:07.350Z,82.45
2018-06-22T09:18:07.354Z,83.27
2018-06-22T09:19:07.299Z,83.95
2018-06-22T09:20:07.333Z,83.54
2018-06-22T09:21:07.317Z,81.49
2018-06-22T09:22:07.269Z,81.79
2018-06-22T09:23:07.255Z,82.92
2018-06-22T09:24:07.228Z,82.41
2018-06-22T09:25:07.219Z,80.74
2018-06-22T09:26:07.248Z,81.15
2018-06-22T09:27:07.202Z,80.26
2018-06-22T09:28:07.207Z,80.05
2018-06-22T09:29:07.252Z,80.46
2018-06-22T09:30:07.230Z,82.41
2018-06-22T09:31:07.223Z,82.10
2018-06-22T09:32:07.166Z,81.56
2018-06-22T09:33:07.149Z,79.75
2018-06-22T09:34:07.198Z,80.46
2018-06-22T09:35:07.118Z,81.49
2018-06-22T09:36:07.101Z,83.19
2018-06-22T09:37:07.159Z,82.17
2018-06-22T09:38:07.109Z,80.43
2018-06-22T09:39:07.069Z,80.98
2018-06-22T09:40:07.053Z,81.29
2018-06-22T09:41:07.046Z,81.93
2018-06-22T09:42:07.045Z,81.41
2018-06-22T09:43:07.067Z,80.80
2018-06-22T09:44:07.077Z,80.53
2018-06-22T09:45:07.067Z,78.96
2018-06-22T09:46:06.984Z,79.27
2018-06-22T09:47:07.030Z,79.84
2018-06-22T09:48:06.973Z,80.15
2018-06-22T09:49:06.959Z,79.84
2018-06-22T09:50:06.967Z,77.70
2018-06-22T09:51:06.938Z,78.61
2018-06-22T09:52:06.920Z,76.47
2018-06-22T09:53:06.993Z,74.73
2018-06-22T09:54:06.916Z,75.89
2018-06-22T09:55:06.940Z,76.71
2018-06-22T09:56:06.876Z,76.54
2018-06-22T09:57:06.878Z,77.67
2018-06-22T09:58:06.899Z,77.97
2018-06-22T09:59:06.886Z,78.55
2018-06-22T10:00:06.862Z,77.26
2018-06-22T10:01:06.828Z,76.43
2018-06-22T10:02:06.851Z,79.10
2018-06-22T10:03:06.840Z,81.56
2018-06-22T10:04:06.787Z,79.03
2018-06-22T10:05:06.783Z,78.31
2018-06-22T10:06:06.768Z,80.57
2018-06-22T10:07:07.601Z,81.70
2018-06-22T10:08:06.821Z,79.64
2018-06-22T10:09:06.734Z,80.74
2018-06-22T10:10:06.732Z,80.43
2018-06-22T10:11:06.728Z,81.24
2018-06-22T10:12:06.756Z,79.82
2018-06-22T10:13:06.712Z,79.10
2018-06-22T10:14:06.673Z,79.00
2018-06-22T10:15:06.680Z,79.47
2018-06-22T10:16:06.655Z,80.15
2018-06-22T10:17:06.675Z,79.94
2018-06-22T10:18:06.674Z,81.68
2018-06-22T10:19:06.626Z,80.35
2018-06-22T10:20:06.618Z,80.32
2018-06-22T10:21:06.603Z,76.53
2018-06-22T10:22:06.581Z,77.45
2018-06-22T10:23:06.604Z,79.19
2018-06-22T10:24:06.603Z,77.35
2018-06-22T10:25:06.559Z,77.35
2018-06-22T10:26:06.533Z,79.09
2018-06-22T10:27:06.645Z,79.29
2018-06-22T10:28:06.538Z,80.32
2018-06-22T10:29:06.502Z,80.11
2018-06-22T10:30:06.519Z,79.60
2018-06-22T10:31:06.481Z,80.01
2018-06-22T10:32:06.475Z,80.32
2018-06-22T10:33:06.478Z,82.97
2018-06-22T10:34:06.470Z,82.20
2018-06-22T10:35:06.439Z,83.11
2018-06-22T10:36:06.426Z,82.91
2018-06-22T10:37:06.421Z,81.48
2018-06-22T10:38:06.418Z,82.81
2018-06-22T10:39:06.395Z,83.32
2018-06-22T10:40:06.384Z,80.29
2018-06-22T10:41:06.367Z,76.81
2018-06-22T10:42:06.364Z,78.89
2018-06-22T10:43:06.392Z,81.86
2018-06-22T10:44:06.335Z,80.49
2018-06-22T10:45:06.328Z,83.36
2018-06-22T10:46:06.341Z,79.71
2018-06-22T10:47:06.301Z,79.88
2018-06-22T10:48:06.330Z,76.50
2018-06-22T10:49:06.289Z,77.87
2018-06-22T10:50:06.272Z,74.76
2018-06-22T10:51:06.267Z,75.24
2018-06-22T10:52:06.246Z,75.65
2018-06-22T10:53:06.247Z,77.04
2018-06-22T10:54:06.223Z,76.43
2018-06-22T10:55:06.217Z,76.26
2018-06-22T10:56:06.202Z,76.36
2018-06-22T10:57:06.206Z,75.13
2018-06-22T10:58:06.215Z,75.20
2018-06-22T10:59:06.179Z,76.43
2018-06-22T11:00:06.182Z,76.90
2018-06-22T11:01:06.173Z,72.52
2018-06-22T11:02:06.144Z,71.91
2018-06-22T11:03:06.144Z,73.94
2018-06-22T11:04:06.127Z,75.16
2018-06-22T11:05:06.107Z,76.39
2018-06-22T11:06:06.107Z,74.96
2018-06-22T11:07:06.100Z,74.96
2018-06-22T11:08:06.083Z,72.31
2018-06-22T11:09:06.092Z,72.72
2018-06-22T11:10:06.078Z,72.41
2018-06-22T11:11:06.038Z,73.13
2018-06-22T11:12:06.039Z,75.37
2018-06-22T11:13:06.056Z,74.76
2018-06-22T11:14:06.015Z,74.25
2018-06-22T11:15:06.006Z,75.16
2018-06-22T11:16:06.014Z,76.19
2018-06-22T11:17:06.028Z,74.35
2018-06-22T11:18:05.960Z,72.62
2018-06-22T11:19:05.955Z,73.84
2018-06-22T11:20:05.936Z,75.44
2018-06-22T11:21:05.951Z,75.03
2018-06-22T11:22:05.921Z,74.83
2018-06-22T11:23:05.903Z,75.13
2018-06-22T11:24:05.914Z,72.58
2018-06-22T11:25:05.888Z,72.58
2018-06-22T11:26:05.873Z,71.84
2018-06-22T11:27:05.857Z,71.02
2018-06-22T11:28:05.853Z,69.67
2018-06-22T11:29:05.850Z,70.99
2018-06-22T11:30:05.827Z,72.08
2018-06-22T11:31:05.823Z,71.64
2018-06-22T11:32:05.809Z,68.88
2018-06-22T11:33:05.797Z,69.60
2018-06-22T11:34:05.819Z,69.09
2018-06-22T11:35:05.771Z,70.65
2018-06-22T11:36:05.766Z,67.63
2018-06-22T11:37:05.750Z,68.75
2018-06-22T11:38:05.737Z,70.28
2018-06-22T11:39:05.736Z,72.82
2018-06-22T11:40:05.724Z,70.38
2018-06-22T11:41:05.723Z,66.17
2018-06-22T11:42:05.696Z,66.50
2018-06-22T11:43:05.683Z,69.23
2018-06-22T11:44:05.682Z,70.28
2018-06-22T11:45:05.663Z,70.95
2018-06-22T11:46:05.667Z,71.36
2018-06-22T11:47:05.667Z,67.63
2018-06-22T11:48:05.625Z,68.85
2018-06-22T11:49:05.629Z,69.56
2018-06-22T11:50:05.614Z,70.07
2018-06-22T11:51:05.627Z,70.17
2018-06-22T11:52:05.589Z,72.55
2018-06-22T11:53:05.569Z,71.02
2018-06-22T11:54:05.603Z,70.44
2018-06-22T11:55:05.550Z,70.14
2018-06-22T11:56:05.540Z,71.46
2018-06-22T11:57:05.524Z,71.56
2018-06-22T11:58:05.541Z,71.12
2018-06-22T11:59:05.585Z,69.49
2018-06-22T12:00:05.494Z,68.98
2018-06-22T12:01:05.493Z,70.17
2018-06-22T12:02:05.473Z,66.91
2018-06-22T12:03:05.486Z,67.32
2018-06-22T12:04:05.465Z,67.49
2018-06-22T12:05:05.453Z,64.87
2018-06-22T12:06:05.431Z,66.91
2018-06-22T12:07:05.423Z,70.07
2018-06-22T12:08:05.420Z,69.80
2018-06-22T12:09:05.435Z,71.94
2018-06-22T12:10:05.383Z,71.97
2018-06-22T12:11:05.371Z,72.58
2018-06-22T12:12:05.360Z,71.15
2018-06-22T12:13:05.362Z,71.46
2018-06-22T12:14:05.363Z,73.10
2018-06-22T12:15:05.346Z,72.79
2018-06-22T12:16:05.316Z,73.77
2018-06-22T12:17:05.312Z,73.40
2018-06-22T12:18:05.292Z,75.13
2018-06-22T12:19:05.388Z,73.81
2018-06-22T12:20:12.807Z,74.96
2018-06-22T12:21:05.270Z,75.16
2018-06-22T12:22:05.263Z,75.98
2018-06-22T12:23:05.237Z,76.29
2018-06-22T12:24:05.237Z,75.88
2018-06-22T12:25:05.215Z,73.47
2018-06-22T12:26:05.203Z,74.35
2018-06-22T12:27:05.193Z,75.31
2018-06-22T12:28:05.182Z,74.66
2018-06-22T12:29:05.180Z,75.37
2018-06-22T12:30:05.161Z,74.96
2018-06-22T12:31:05.149Z,76.29
2018-06-22T12:32:05.139Z,76.29
2018-06-22T12:33:05.139Z,71.29
2018-06-22T12:34:05.129Z,74.52
2018-06-22T12:35:05.102Z,74.73
2018-06-22T12:36:05.101Z,73.40
2018-06-22T12:37:05.085Z,72.24
2018-06-22T12:38:05.072Z,72.75
2018-06-22T12:39:05.074Z,73.74
2018-06-22T12:40:05.050Z,73.33
2018-06-22T12:41:05.040Z,70.89
2018-06-22T12:42:05.027Z,71.50
2018-06-22T12:43:05.044Z,70.99
2018-06-22T12:44:05.014Z,72.48
2018-06-22T12:45:05.021Z,70.72
2018-06-22T12:46:04.981Z,70.07
2018-06-22T12:47:04.987Z,67.13
2018-06-22T12:48:04.962Z,67.71
2018-06-22T12:49:04.961Z,64.55
2018-06-22T12:50:04.939Z,66.69
2018-06-22T12:51:04.925Z,63.74
2018-06-22T12:52:04.917Z,65.23